Time;durP1;ratioP1;P1;durP2;ratioP2;P2;SDS_P1;SDS_P2;PMS_P1;PMS_P2;Temp;Humidity;BMP_temperature;BMP_pressure;BME280_temperature;BME280_humidity;BME280_pressure;Samples;Min_cycle;Max_cycle;Signal;HPM_P1;HPM_P2
2023/04/05 00:02:31;;;;;;;3.95;3.60;;;;;;;6.65;44.98;100892.00;10434844;28;20116;-69
2023/04/05 00:07:33;;;;;;;4.03;3.63;;;;;;;6.62;45.06;100893.03;10442354;28;20214;-69
2023/04/05 00:12:35;;;;;;;4.68;3.95;;;;;;;6.61;44.98;100888.69;10431265;28;20625;-67
2023/04/05 00:17:36;;;;;;;3.90;3.60;;;;;;;6.55;45.36;100875.78;10430394;28;20048;-66
2023/04/05 00:22:40;;;;;;;4.68;3.65;;;;;;;6.58;45.17;100878.25;10427825;28;20128;-69
2023/04/05 00:27:43;;;;;;;5.35;3.72;;;;;;;6.55;45.05;100889.00;10426188;28;20726;-69
2023/04/05 00:32:46;;;;;;;4.22;3.83;;;;;;;6.60;45.11;100883.47;10422107;28;20611;-68
2023/04/05 00:37:48;;;;;;;5.20;4.70;;;;;;;6.57;45.37;100879.19;10423974;28;20051;-64
2023/04/05 00:42:49;;;;;;;4.75;4.35;;;;;;;6.64;45.52;100877.94;10425166;28;20057;-67
2023/04/05 00:47:51;;;;;;;4.38;3.97;;;;;;;6.62;45.63;100876.28;10427065;28;20049;-69
2023/04/05 00:52:52;;;;;;;4.80;4.40;;;;;;;6.69;45.32;100872.38;10425005;28;20983;-70
2023/04/05 00:57:57;;;;;;;5.28;4.78;;;;;;;6.61;45.21;100871.97;10429181;28;20048;-67
2023/04/05 01:03:02;;;;;;;;;;;;;;;6.53;45.22;100860.00;10424938;28;20048;-66
2023/04/05 01:08:14;;;;;;;4.38;3.97;;;;;;;6.50;45.19;100854.00;10423276;28;19936;-69
2023/04/05 01:13:16;;;;;;;4.78;3.92;;;;;;;6.49;45.45;100857.59;10421811;28;20774;-70
2023/04/05 01:18:18;;;;;;;5.22;3.78;;;;;;;6.34;45.17;100838.97;10420924;28;20049;-70
2023/04/05 01:23:31;;;;;;;5.68;3.72;;;;;;;6.42;44.92;100848.28;10423974;28;20060;-68
2023/04/05 01:29:24;;;;;;;4.55;3.83;;;;;;;6.43;44.64;100842.91;10418396;28;20636;-66
2023/04/05 01:34:55;;;;;;;6.10;3.58;;;;;;;6.47;44.78;100844.47;10410473;28;20113;-67
2023/04/05 01:39:57;;;;;;;6.70;3.50;;;;;;;6.31;44.40;100828.56;10415054;28;20056;-67
2023/04/05 01:44:59;;;;;;;5.90;4.55;;;;;;;6.28;44.62;100839.28;10427595;28;20118;-68
2023/04/05 01:50:00;;;;;;;5.45;3.53;;;;;;;6.22;44.05;100836.13;10431666;28;20068;-67
2023/04/05 01:55:02;;;;;;;4.15;3.67;;;;;;;6.18;44.26;100827.50;10433209;28;20587;-67
2023/04/05 02:00:04;;;;;;;5.50;3.40;;;;;;;6.10;44.44;100824.41;10435605;28;20126;-69
2023/04/05 02:05:06;;;;;;;3.55;3.25;;;;;;;6.05;45.08;100837.88;10434446;28;20127;-68
2023/04/05 02:10:07;;;;;;;3.85;3.47;;;;;;;5.93;44.80;100827.88;10431612;28;20105;-71
2023/04/05 02:15:09;;;;;;;4.85;4.38;;;;;;;5.83;45.42;100822.25;10433001;28;20737;-69
2023/04/05 02:20:13;;;;;;;6.32;3.78;;;;;;;5.82;45.63;100831.97;10440379;28;20056;-67
2023/04/05 02:25:15;;;;;;;5.13;4.40;;;;;;;5.76;45.68;100826.13;10436043;28;20638;-68
2023/04/05 02:30:16;;;;;;;4.25;3.85;;;;;;;5.79;45.43;100831.25;10435067;28;20160;-70
2023/04/05 02:35:20;;;;;;;4.28;3.47;;;;;;;5.74;45.46;100833.28;10432280;28;20139;-70
2023/04/05 02:40:22;;;;;;;3.90;3.60;;;;;;;5.68;45.49;100823.03;10434608;28;20057;-68
2023/04/05 02:45:23;;;;;;;4.68;3.88;;;;;;;5.59;45.89;100827.84;10435896;28;20630;-66
2023/04/05 02:50:25;;;;;;;4.57;3.72;;;;;;;5.56;45.98;100828.00;10444344;28;20643;-71
2023/04/05 02:55:29;;;;;;;4.55;4.07;;;;;;;5.52;46.39;100829.06;10447832;28;20436;-69
2023/04/05 03:00:31;;;;;;;4.35;3.95;;;;;;;5.47;45.95;100820.53;10440716;28;20072;-67
2023/04/05 03:05:32;;;;;;;5.78;3.45;;;;;;;5.48;46.26;100822.25;10441410;28;20052;-69
2023/04/05 03:10:35;;;;;;;4.97;3.65;;;;;;;5.40;46.05;100813.84;10431972;28;20045;-69
2023/04/05 03:15:37;;;;;;;4.38;3.97;;;;;;;5.41;46.39;100805.00;10432537;28;20678;-68
2023/04/05 03:20:39;;;;;;;5.15;4.68;;;;;;;5.30;46.40;100806.41;10430232;28;20211;-67
2023/04/05 03:25:40;;;;;;;4.03;3.63;;;;;;;5.26;46.67;100799.56;10431476;28;20772;-71
2023/04/05 03:30:42;;;;;;;5.65;4.13;;;;;;;5.31;46.64;100800.19;10430190;28;20047;-69
2023/04/05 03:35:44;;;;;;;3.97;3.55;;;;;;;5.23;46.40;100797.06;10430061;28;20056;-70
2023/04/05 03:40:45;;;;;;;4.53;3.92;;;;;;;5.18;47.33;100804.38;10434181;28;20055;-67
2023/04/05 03:45:47;;;;;;;4.40;4.00;;;;;;;5.04;47.71;100809.47;10436059;28;20473;-72
2023/04/05 03:50:48;;;;;;;5.07;4.57;;;;;;;4.99;47.93;100804.41;10452032;28;20040;-69
2023/04/05 03:55:52;;;;;;;5.60;4.57;;;;;;;4.94;48.19;100804.63;10450221;28;20683;-67
2023/04/05 04:00:55;;;;;;;6.22;3.90;;;;;;;4.93;48.04;100799.44;10428940;28;20077;-70
2023/04/05 04:05:57;;;;;;;5.30;4.15;;;;;;;4.89;47.66;100793.41;10430600;28;20102;-67
2023/04/05 04:10:58;;;;;;;5.18;4.63;;;;;;;4.78;47.46;100786.03;10433367;28;20142;-70
2023/04/05 04:16:00;;;;;;;4.70;4.18;;;;;;;4.73;47.47;100787.19;10424179;28;20055;-70
2023/04/05 04:21:05;;;;;;;5.22;4.50;;;;;;;4.71;47.92;100791.69;10436156;28;20592;-67
2023/04/05 04:26:08;;;;;;;4.60;3.85;;;;;;;4.66;48.79;100796.31;10436377;28;20036;-70
2023/04/05 04:31:13;;;;;;;5.32;4.45;;;;;;;4.59;48.89;100793.09;10438420;28;20052;-65
2023/04/05 04:36:16;;;;;;;6.30;4.63;;;;;;;4.53;49.44;100786.34;10449172;28;20053;-70
2023/04/05 04:41:21;;;;;;;4.80;4.32;;;;;;;4.48;49.47;100793.63;10456556;28;20111;-71
2023/04/05 04:46:29;;;;;;;6.38;4.88;;;;;;;4.44;49.64;100799.94;10434811;28;20127;-72
2023/04/05 04:51:32;;;;;;;5.03;4.25;;;;;;;4.39;49.39;100791.41;10433084;28;20133;-67
2023/04/05 04:56:33;;;;;;;5.05;4.63;;;;;;;4.42;49.58;100789.47;10428770;28;20462;-67
2023/04/05 05:01:39;;;;;;;5.07;4.63;;;;;;;4.37;49.50;100796.75;10432121;28;20044;-68
2023/04/05 05:06:41;;;;;;;5.30;4.63;;;;;;;4.30;49.87;100795.31;10422117;28;20048;-69
2023/04/05 05:11:42;;;;;;;6.32;5.65;;;;;;;4.27;50.33;100799.88;10422699;28;20180;-67
2023/04/05 05:16:44;;;;;;;5.43;4.93;;;;;;;4.23;50.30;100799.16;10415280;28;21176;-67
2023/04/05 05:21:48;;;;;;;5.43;4.60;;;;;;;4.24;50.28;100803.50;10417878;28;20159;-68
2023/04/05 05:26:50;;;;;;;5.25;4.75;;;;;;;4.11;50.24;100787.38;10429366;28;20128;-67
2023/04/05 05:31:51;;;;;;;6.18;4.40;;;;;;;4.17;50.46;100800.28;10424861;28;20094;-71
2023/04/05 05:36:56;;;;;;;5.85;5.00;;;;;;;4.27;50.47;100806.00;10422732;28;20447;-70
2023/04/05 05:41:57;;;;;;;5.50;4.53;;;;;;;4.29;50.49;100798.88;10428640;28;20049;-70
2023/04/05 05:46:59;;;;;;;5.15;4.65;;;;;;;4.29;50.29;100803.28;10428310;28;20050;-68
2023/04/05 05:52:02;;;;;;;8.18;4.57;;;;;;;4.31;50.11;100804.94;10438617;28;20057;-71
2023/04/05 05:57:03;;;;;;;4.85;4.45;;;;;;;4.38;50.24;100818.69;10440329;28;20044;-69
2023/04/05 06:02:05;;;;;;;4.88;4.38;;;;;;;4.47;49.61;100810.34;10436567;28;20130;-68
2023/04/05 06:07:06;;;;;;;5.28;4.78;;;;;;;4.52;49.39;100815.41;10453008;28;20064;-70
2023/04/05 06:12:08;;;;;;;5.15;4.65;;;;;;;4.74;49.21;100825.81;10445725;28;20072;-68
2023/04/05 06:17:09;;;;;;;6.30;4.88;;;;;;;4.89;48.80;100821.59;10462464;28;20104;-69
2023/04/05 06:22:11;;;;;;;6.53;5.05;;;;;;;4.96;48.44;100813.31;10442907;28;20056;-69
2023/04/05 06:27:13;;;;;;;5.20;4.70;;;;;;;5.27;48.15;100814.47;10436869;28;20141;-70
2023/04/05 06:32:14;;;;;;;6.13;4.47;;;;;;;5.47;46.87;100820.53;10441149;28;20228;-69
2023/04/05 06:37:16;;;;;;;5.25;4.75;;;;;;;5.49;46.29;100808.09;10445293;28;20105;-69
2023/04/05 06:42:17;;;;;;;5.70;5.15;;;;;;;5.75;45.86;100819.13;10446662;28;20095;-73
2023/04/05 06:47:19;;;;;;;6.10;4.30;;;;;;;5.93;45.09;100802.34;10438684;28;20131;-73
2023/04/05 06:52:20;;;;;;;5.03;3.97;;;;;;;6.14;44.34;100815.38;10435814;28;20059;-72
2023/04/05 06:57:21;;;;;;;5.78;4.40;;;;;;;6.32;43.80;100811.75;10442024;28;20550;-66
2023/04/05 07:02:23;;;;;;;6.40;4.40;;;;;;;6.46;43.48;100810.16;10440613;28;20048;-66
2023/04/05 07:07:25;;;;;;;3.45;3.15;;;;;;;6.64;43.20;100814.44;10438364;28;20068;-68
2023/04/05 07:12:26;;;;;;;3.40;3.00;;;;;;;6.84;44.17;100807.19;10441184;28;20053;-70
2023/04/05 07:17:27;;;;;;;4.70;3.80;;;;;;;6.95;42.85;100801.28;10418937;28;20471;-68
2023/04/05 07:22:29;;;;;;;3.30;2.70;;;;;;;7.00;42.66;100784.22;10417158;28;20051;-70
2023/04/05 07:27:30;;;;;;;3.25;2.95;;;;;;;7.17;41.47;100800.91;10412929;28;20492;-70
2023/04/05 07:32:33;;;;;;;4.35;3.33;;;;;;;7.20;41.31;100806.03;10414168;28;20102;-68
2023/04/05 07:37:35;;;;;;;4.32;3.40;;;;;;;7.37;41.29;100803.28;10417071;28;20052;-71
2023/04/05 07:42:36;;;;;;;4.40;3.22;;;;;;;7.55;41.38;100805.75;10418673;28;20323;-67
2023/04/05 07:47:38;;;;;;;4.10;3.75;;;;;;;7.61;41.23;100800.09;10419332;28;20044;-74
2023/04/05 07:52:40;;;;;;;3.55;3.25;;;;;;;7.78;41.19;100796.47;10429874;28;20510;-72
2023/04/05 07:57:42;;;;;;;4.47;3.67;;;;;;;7.92;41.29;100798.28;10427751;28;20045;-69
2023/04/05 08:02:43;;;;;;;4.40;3.63;;;;;;;7.92;41.13;100792.97;10430178;28;20045;-69
2023/04/05 08:07:45;;;;;;;3.70;3.35;;;;;;;8.10;40.79;100802.44;10421497;28;20693;-68
2023/04/05 08:12:46;;;;;;;4.90;3.25;;;;;;;8.00;40.69;100796.03;10428596;28;20055;-66
2023/04/05 08:17:47;;;;;;;3.97;3.58;;;;;;;8.00;41.36;100796.03;10427026;28;20048;-67
2023/04/05 08:22:49;;;;;;;5.95;3.33;;;;;;;8.36;40.21;100789.41;10424148;28;20498;-68
2023/04/05 08:27:50;;;;;;;4.15;3.75;;;;;;;8.43;40.29;100779.22;10426424;28;20059;-67
2023/04/05 08:32:51;;;;;;;3.92;3.53;;;;;;;8.52;40.25;100775.19;10430202;28;20122;-69
2023/04/05 08:37:53;;;;;;;5.13;3.67;;;;;;;8.78;38.86;100782.34;10420204;28;20059;-65
2023/04/05 08:43:06;;;;;;;3.75;3.10;;;;;;;8.99;39.12;100773.91;10432006;28;20060;-63
2023/04/05 08:48:08;;;;;;;3.65;3.22;;;;;;;9.25;38.33;100785.47;10429734;28;20203;-68
2023/04/05 08:53:09;;;;;;;4.57;3.67;;;;;;;9.55;37.09;100782.56;10427335;28;20048;-70
2023/04/05 08:58:13;;;;;;;2.78;2.45;;;;;;;9.69;35.87;100757.69;10426784;28;20050;-67
2023/04/05 09:03:22;;;;;;;3.85;3.10;;;;;;;10.05;35.01;100773.88;10428615;28;20566;-66
2023/04/05 09:08:24;;;;;;;5.40;3.05;;;;;;;9.99;34.63;100764.50;10423610;28;20044;-68
2023/04/05 09:13:25;;;;;;;5.65;3.88;;;;;;;10.34;34.28;100763.00;10424443;28;20649;-67
2023/04/05 09:18:27;;;;;;;6.88;2.95;;;;;;;10.73;32.31;100769.06;10426039;28;20048;-66
2023/04/05 09:23:28;;;;;;;3.20;2.80;;;;;;;10.94;32.10;100756.84;10425177;28;20135;-67
2023/04/05 09:28:41;;;;;;;3.67;2.90;;;;;;;11.30;31.24;100764.84;10424528;28;20077;-69
2023/04/05 09:33:42;;;;;;;4.10;3.00;;;;;;;11.65;31.74;100761.34;10426571;28;20063;-65
2023/04/05 09:38:45;;;;;;;4.40;3.00;;;;;;;12.06;31.74;100761.78;10425416;28;20045;-66
2023/04/05 09:43:46;;;;;;;3.80;3.50;;;;;;;11.91;30.65;100761.97;10418566;28;20173;-69
2023/04/05 09:48:49;;;;;;;3.53;2.55;;;;;;;12.19;30.76;100754.50;10428036;28;20060;-66
2023/04/05 09:54:05;;;;;;;3.08;2.78;;;;;;;12.66;28.57;100757.00;10426869;28;20360;-69
2023/04/05 09:59:12;;;;;;;3.28;2.97;;;;;;;12.87;29.21;100754.38;10427708;28;20682;-65
2023/04/05 10:04:13;;;;;;;2.95;2.75;;;;;;;12.93;29.51;100759.22;10427808;28;20059;-67
2023/04/05 10:09:16;;;;;;;5.18;2.65;;;;;;;13.52;27.60;100752.53;10428511;28;20109;-68
2023/04/05 10:14:18;;;;;;;4.55;3.00;;;;;;;14.33;27.42;100738.44;10433827;28;20091;-69
2023/04/05 10:19:27;;;;;;;3.25;2.83;;;;;;;16.19;25.38;100749.13;10432363;28;20067;-67
2023/04/05 10:24:53;;;;;;;3.90;2.10;;;;;;;20.56;19.96;100733.69;10433990;28;20075;-71
2023/04/05 10:30:07;;;;;;;3.42;2.47;;;;;;;22.43;18.63;100730.56;10427035;28;20615;-69
2023/04/05 10:35:16;;;;;;;2.75;2.40;;;;;;;20.97;18.05;100724.50;10452003;28;20163;-69
2023/04/05 10:40:23;;;;;;;3.53;2.58;;;;;;;19.13;19.93;100725.44;10453774;28;20357;-71
2023/04/05 10:45:26;;;;;;;3.05;2.55;;;;;;;18.66;21.50;100719.59;10462708;28;20151;-70
2023/04/05 10:50:28;;;;;;;3.15;2.60;;;;;;;21.51;18.59;100713.63;10450164;28;20138;-66
2023/04/05 10:55:30;;;;;;;2.08;1.88;;;;;;;25.31;15.28;100695.16;10431672;28;20064;-69
2023/04/05 11:00:32;;;;;;;3.80;2.38;;;;;;;27.61;13.85;100694.66;10435310;28;20098;-69
2023/04/05 11:05:36;;;;;;;2.08;1.88;;;;;;;28.57;12.67;100697.75;10433563;28;20135;-67
2023/04/05 11:10:38;;;;;;;3.60;2.55;;;;;;;29.30;11.62;100695.00;10428075;28;20461;-71
2023/04/05 11:15:40;;;;;;;3.72;2.13;;;;;;;29.96;10.62;100685.53;10433309;28;20076;-69
2023/04/05 11:20:50;;;;;;;3.05;2.10;;;;;;;30.26;10.66;100684.50;10423454;28;20116;-70
2023/04/05 11:25:56;;;;;;;2.05;1.85;;;;;;;30.71;10.19;100674.66;10434046;28;20045;-71
2023/04/05 11:31:11;;;;;;;1.75;1.35;;;;;;;31.27;9.46;100672.06;10437104;28;20079;-71
2023/04/05 11:36:28;;;;;;;4.10;1.70;;;;;;;31.48;8.96;100662.19;10424679;28;20048;-69
2023/04/05 11:41:32;;;;;;;2.58;2.05;;;;;;;31.95;9.17;100660.91;10426000;28;20045;-70
2023/04/05 11:46:34;;;;;;;2.10;1.85;;;;;;;32.57;8.99;100653.34;10431655;28;20049;-69
2023/04/05 11:51:36;;;;;;;3.45;2.15;;;;;;;32.86;8.70;100648.41;10429812;28;20799;-69
2023/04/05 11:56:37;;;;;;;4.00;2.10;;;;;;;33.48;8.12;100635.91;10430599;28;20052;-69
2023/04/05 12:01:43;;;;;;;2.00;1.80;;;;;;;31.42;9.29;100629.34;10429729;28;20440;-70
2023/04/05 12:06:45;;;;;;;2.88;1.90;;;;;;;32.81;8.91;100625.50;10427745;28;20721;-70
2023/04/05 12:11:53;;;;;;;3.47;1.90;;;;;;;32.49;8.92;100618.00;10427716;28;20037;-68
2023/04/05 12:16:55;;;;;;;2.13;1.50;;;;;;;33.23;8.53;100613.69;10423907;28;20079;-68
2023/04/05 12:21:56;;;;;;;2.38;1.70;;;;;;;34.22;8.43;100615.78;10424060;28;20084;-71
2023/04/05 12:26:59;;;;;;;2.75;1.90;;;;;;;33.85;7.78;100611.25;10433370;28;20044;-70
2023/04/05 12:32:03;;;;;;;4.13;1.38;;;;;;;34.08;8.13;100607.19;10442053;28;20052;-69
2023/04/05 12:37:04;;;;;;;2.40;1.60;;;;;;;34.00;7.96;100603.00;10430700;28;20119;-69
2023/04/05 12:42:06;;;;;;;1.70;1.55;;;;;;;34.03;8.17;100591.44;10425721;28;20191;-70
2023/04/05 12:47:09;;;;;;;3.53;1.88;;;;;;;33.98;8.47;100580.38;10426780;28;20052;-70
2023/04/05 12:52:18;;;;;;;3.55;1.60;;;;;;;32.64;8.72;100571.31;10425084;28;20060;-67
2023/04/05 12:57:30;;;;;;;1.80;1.70;;;;;;;29.25;10.52;100569.63;10425902;28;20887;-67
2023/04/05 13:02:32;;;;;;;3.20;1.90;;;;;;;24.86;13.42;100566.91;10424677;28;20113;-67
2023/04/05 13:07:33;;;;;;;1.80;1.45;;;;;;;23.58;13.77;100565.75;10430663;28;20683;-68
2023/04/05 13:12:35;;;;;;;2.75;1.67;;;;;;;22.95;14.04;100561.19;10423256;28;20055;-68
2023/04/05 13:17:36;;;;;;;7.10;6.50;;;;;;;22.45;13.74;100549.47;10425249;28;20128;-71
2023/04/05 13:22:38;;;;;;;3.17;2.88;;;;;;;21.93;14.08;100551.41;10423458;28;20749;-69
2023/04/05 13:27:40;;;;;;;2.60;2.38;;;;;;;20.40;15.52;100553.50;10427335;28;20045;-71
2023/04/05 13:32:41;;;;;;;3.07;2.70;;;;;;;19.68;16.21;100540.22;10425813;28;20055;-71
2023/04/05 13:37:43;;;;;;;2.15;1.95;;;;;;;19.50;16.36;100535.94;10424263;28;20079;-70
2023/04/05 13:42:44;;;;;;;2.92;2.20;;;;;;;19.35;15.60;100533.13;10427268;28;20064;-72
2023/04/05 13:47:46;;;;;;;2.58;2.10;;;;;;;19.50;15.36;100529.69;10434125;28;20052;-68
2023/04/05 13:52:47;;;;;;;3.88;2.55;;;;;;;19.30;14.87;100531.97;10430478;28;20055;-67
2023/04/05 13:57:49;;;;;;;7.45;2.50;;;;;;;18.83;15.44;100526.31;10434985;28;20072;-67
2023/04/05 14:02:50;;;;;;;3.70;2.60;;;;;;;18.57;16.04;100526.50;10434150;28;20441;-68
2023/04/05 14:07:52;;;;;;;2.42;2.17;;;;;;;17.81;15.55;100518.47;10423701;28;20044;-70
2023/04/05 14:12:53;;;;;;;2.97;2.35;;;;;;;17.35;17.45;100509.06;10431659;28;20049;-68
2023/04/05 14:17:54;;;;;;;2.85;2.10;;;;;;;17.22;16.93;100504.97;10431911;28;20045;-69
2023/04/05 14:22:56;;;;;;;4.07;2.65;;;;;;;17.02;16.31;100509.72;10428807;28;20052;-69
2023/04/05 14:28:00;;;;;;;3.05;2.28;;;;;;;16.11;17.33;100500.13;10430446;28;20076;-68
2023/04/05 14:33:02;;;;;;;5.65;4.35;;;;;;;15.76;18.11;100480.28;10433476;28;20625;-70
2023/04/05 14:38:03;;;;;;;2.58;2.38;;;;;;;15.48;18.05;100491.03;10432112;28;20037;-69
2023/04/05 14:43:05;;;;;;;3.97;2.70;;;;;;;15.59;18.81;100476.56;10431296;28;20047;-72
2023/04/05 14:48:06;;;;;;;2.80;1.90;;;;;;;15.41;19.52;100463.13;10430320;28;20534;-68
2023/04/05 14:53:09;;;;;;;3.63;2.20;;;;;;;15.34;18.28;100475.44;10426984;28;20462;-71
2023/04/05 14:58:10;;;;;;;3.10;2.75;;;;;;;15.12;18.56;100468.66;10429986;28;20049;-69
2023/04/05 15:03:15;;;;;;;;;;;;;;;14.82;19.21;100475.94;10424867;28;20071;-65
2023/04/05 15:08:16;;;;;;;2.75;2.28;;;;;;;14.67;19.91;100475.56;10426352;28;19992;-68
2023/04/05 15:13:19;;;;;;;2.80;2.53;;;;;;;14.57;19.59;100469.34;10429696;28;20601;-69
2023/04/05 15:18:21;;;;;;;3.10;2.80;;;;;;;14.23;20.66;100464.44;10429406;28;20063;-63
2023/04/05 15:23:22;;;;;;;3.00;2.45;;;;;;;14.24;20.22;100466.16;10431591;28;20046;-68
2023/04/05 15:28:24;;;;;;;2.70;2.50;;;;;;;14.18;20.50;100461.38;10429336;28;20097;-69
2023/04/05 15:33:25;;;;;;;3.40;3.10;;;;;;;13.88;20.61;100444.47;10426468;28;20079;-64
2023/04/05 15:38:27;;;;;;;3.72;2.20;;;;;;;13.85;21.76;100450.09;10431944;28;20048;-65
2023/04/05 15:43:30;;;;;;;3.78;3.20;;;;;;;13.76;22.23;100457.97;10430352;28;20052;-66
2023/04/05 15:48:31;;;;;;;4.50;2.55;;;;;;;13.69;22.51;100446.16;10428202;28;20474;-64
2023/04/05 15:53:33;;;;;;;4.32;3.30;;;;;;;13.69;22.02;100456.00;10431217;28;20140;-66
2023/04/05 15:58:35;;;;;;;2.92;2.67;;;;;;;13.56;22.41;100457.09;10428886;28;20041;-67
2023/04/05 16:03:37;;;;;;;2.70;2.45;;;;;;;13.48;22.84;100458.75;10425374;28;20044;-69
2023/04/05 16:08:39;;;;;;;4.05;3.20;;;;;;;13.33;22.95;100443.09;10427517;28;20047;-69
2023/04/05 16:13:40;;;;;;;3.30;2.70;;;;;;;13.19;23.45;100448.81;10426838;28;20068;-66
2023/04/05 16:18:42;;;;;;;3.40;2.88;;;;;;;13.04;24.13;100438.47;10428412;28;20076;-67
2023/04/05 16:23:45;;;;;;;3.33;3.03;;;;;;;12.95;24.05;100441.13;10421610;28;20048;-66
2023/04/05 16:28:47;;;;;;;3.95;3.55;;;;;;;12.85;24.05;100446.41;10433559;28;20351;-67
2023/04/05 16:33:48;;;;;;;4.13;3.25;;;;;;;12.71;24.57;100432.44;10426801;28;20049;-67
2023/04/05 16:38:50;;;;;;;3.15;2.85;;;;;;;12.71;24.60;100440.44;10437589;28;20055;-70
2023/04/05 16:43:52;;;;;;;3.42;2.72;;;;;;;12.66;24.44;100432.00;10445743;28;20068;-70
2023/04/05 16:48:53;;;;;;;3.47;3.17;;;;;;;12.59;24.53;100430.84;10436719;28;20137;-68
2023/04/05 16:53:55;;;;;;;3.58;2.47;;;;;;;12.46;24.40;100430.19;10427378;28;20105;-66
2023/04/05 16:58:57;;;;;;;3.50;3.20;;;;;;;12.36;24.07;100430.97;10424482;28;20108;-67
2023/04/05 17:03:58;;;;;;;4.63;2.50;;;;;;;12.25;24.61;100431.06;10430805;28;20733;-69
2023/04/05 17:09:00;;;;;;;3.00;2.33;;;;;;;12.21;24.36;100426.94;10429090;28;20048;-66
2023/04/05 17:14:02;;;;;;;4.97;3.70;;;;;;;12.11;24.54;100436.72;10428401;28;20056;-67
2023/04/05 17:19:03;;;;;;;3.08;2.78;;;;;;;11.99;24.37;100423.44;10433173;28;20063;-68
2023/04/05 17:24:06;;;;;;;2.83;2.47;;;;;;;11.94;24.16;100441.63;10435830;28;20704;-65
2023/04/05 17:29:07;;;;;;;4.82;2.83;;;;;;;11.84;24.15;100435.34;10443192;28;20183;-64
2023/04/05 17:34:12;;;;;;;2.95;2.65;;;;;;;11.75;24.37;100436.09;10446990;28;20055;-68
2023/04/05 17:39:15;;;;;;;4.05;2.83;;;;;;;11.70;25.44;100438.31;10442402;28;20053;-67
2023/04/05 17:44:16;;;;;;;4.78;2.80;;;;;;;11.61;25.36;100424.75;10439949;28;20044;-66
2023/04/05 17:49:18;;;;;;;5.13;2.63;;;;;;;11.48;24.92;100442.72;10440822;28;20586;-67
2023/04/05 17:54:19;;;;;;;3.50;3.20;;;;;;;11.40;24.86;100442.50;10440103;28;20053;-65
2023/04/05 17:59:21;;;;;;;3.97;3.08;;;;;;;11.29;25.17;100438.06;10438486;28;20459;-67
2023/04/05 18:04:24;;;;;;;5.40;4.90;;;;;;;11.18;25.75;100443.38;10436576;28;20059;-66
2023/04/05 18:09:26;;;;;;;4.22;3.72;;;;;;;11.12;26.05;100436.72;10446369;28;20048;-67
2023/04/05 18:14:29;;;;;;;3.38;3.08;;;;;;;11.01;26.02;100434.91;10448209;28;20094;-68
2023/04/05 18:19:31;;;;;;;4.65;3.35;;;;;;;10.98;26.44;100437.81;10442805;28;20158;-69
2023/04/05 18:24:32;;;;;;;3.05;2.75;;;;;;;10.90;27.21;100440.22;10438505;28;20159;-66
2023/04/05 18:29:36;;;;;;;3.35;2.90;;;;;;;10.83;26.82;100447.03;10434114;28;20040;-66
2023/04/05 18:34:38;;;;;;;4.72;2.97;;;;;;;10.81;27.37;100444.50;10432388;28;20523;-66
2023/04/05 18:39:40;;;;;;;4.20;2.92;;;;;;;10.75;27.99;100443.16;10430689;28;20052;-69
2023/04/05 18:44:41;;;;;;;8.38;5.45;;;;;;;10.69;28.44;100445.44;10432647;28;20045;-68
2023/04/05 18:49:42;;;;;;;9.48;7.70;;;;;;;10.66;28.62;100453.66;10432325;28;22018;-63
2023/04/05 18:54:44;;;;;;;5.32;4.63;;;;;;;10.54;28.46;100453.66;10427221;28;20052;-69
2023/04/05 18:59:45;;;;;;;5.47;4.80;;;;;;;10.47;29.61;100460.41;10443411;28;20049;-67
2023/04/05 19:04:47;;;;;;;7.97;5.20;;;;;;;10.42;30.01;100474.06;10429497;28;20052;-67
2023/04/05 19:09:48;;;;;;;5.13;4.25;;;;;;;10.33;30.72;100469.44;10435410;28;20749;-68
2023/04/05 19:14:49;;;;;;;5.50;4.95;;;;;;;10.23;30.19;100461.28;10429539;28;20049;-64
2023/04/05 19:19:52;;;;;;;7.45;4.22;;;;;;;10.19;31.39;100467.81;10429484;28;20147;-65
2023/04/05 19:24:53;;;;;;;7.28;5.53;;;;;;;10.17;31.74;100479.53;10426745;28;20146;-68
2023/04/05 19:29:55;;;;;;;7.43;5.55;;;;;;;10.09;32.72;100483.59;10434178;28;20118;-66
2023/04/05 19:34:58;;;;;;;7.22;5.55;;;;;;;10.03;32.67;100472.59;10441914;28;20124;-67
2023/04/05 19:40:00;;;;;;;8.05;6.07;;;;;;;10.03;33.06;100488.53;10450516;28;20091;-68
2023/04/05 19:45:06;;;;;;;6.70;5.60;;;;;;;9.97;33.17;100488.97;10449834;28;20078;-67
2023/04/05 19:50:41;;;;;;;6.65;5.32;;;;;;;9.86;33.63;100481.78;10438148;28;20052;-70
2023/04/05 19:55:47;;;;;;;8.60;5.97;;;;;;;9.83;33.25;100479.38;10427709;28;20105;-68
2023/04/05 20:00:52;;;;;;;7.40;5.85;;;;;;;9.70;33.20;100472.31;10442156;28;20048;-65
2023/04/05 20:06:04;;;;;;;7.70;5.82;;;;;;;9.74;32.45;100486.19;10442588;28;20418;-66
2023/04/05 20:11:16;;;;;;;7.38;6.10;;;;;;;9.51;31.23;100487.91;10439737;28;20049;-65
2023/04/05 20:16:24;;;;;;;6.88;5.28;;;;;;;9.20;32.23;100484.75;10432371;28;20457;-69
2023/04/05 20:21:26;;;;;;;7.78;5.60;;;;;;;9.32;31.84;100483.03;10446989;28;20049;-70
2023/04/05 20:26:31;;;;;;;7.05;6.32;;;;;;;9.30;32.12;100469.03;10432904;28;20236;-67
2023/04/05 20:31:36;;;;;;;7.50;5.90;;;;;;;9.14;32.20;100483.41;10432779;28;20119;-69
2023/04/05 20:36:50;;;;;;;7.28;6.07;;;;;;;9.09;33.16;100472.25;10430815;28;20060;-67
2023/04/05 20:41:52;;;;;;;7.82;5.68;;;;;;;9.08;33.00;100467.88;10429982;28;20044;-68
2023/04/05 20:46:55;;;;;;;9.20;5.55;;;;;;;9.09;32.80;100471.41;10427753;28;20703;-67
2023/04/05 20:51:57;;;;;;;7.13;5.97;;;;;;;8.93;33.26;100466.31;10429306;28;20090;-67
2023/04/05 20:56:59;;;;;;;11.88;7.40;;;;;;;8.74;34.21;100472.94;10425270;28;20065;-68
2023/04/05 21:02:00;;;;;;;7.65;6.72;;;;;;;8.66;34.79;100464.63;10424700;28;20049;-65
2023/04/05 21:07:02;;;;;;;6.82;6.10;;;;;;;8.75;34.56;100464.03;10428255;28;20056;-71
2023/04/05 21:12:04;;;;;;;6.63;6.00;;;;;;;8.75;34.75;100461.38;10429013;28;20073;-68
2023/04/05 21:17:06;;;;;;;8.00;5.65;;;;;;;8.79;34.60;100465.47;10430955;28;20091;-68
2023/04/05 21:22:07;;;;;;;5.90;5.30;;;;;;;8.77;35.03;100463.91;10424957;28;20045;-67
2023/04/05 21:27:08;;;;;;;6.53;5.93;;;;;;;8.73;34.92;100463.25;10425956;28;20045;-69
2023/04/05 21:32:10;;;;;;;7.38;6.63;;;;;;;8.65;35.74;100455.00;10429011;28;20044;-67
2023/04/05 21:37:11;;;;;;;9.75;5.93;;;;;;;8.59;36.13;100458.06;10426577;28;20048;-68
2023/04/05 21:42:13;;;;;;;6.18;5.57;;;;;;;8.50;35.24;100475.47;10431681;28;20049;-70
2023/04/05 21:47:16;;;;;;;8.18;7.38;;;;;;;8.34;35.82;100474.78;10433168;28;20523;-67
2023/04/05 21:52:17;;;;;;;8.75;7.85;;;;;;;8.19;37.36;100468.69;10427979;28;20480;-67
2023/04/05 21:57:19;;;;;;;9.07;7.40;;;;;;;8.13;37.85;100468.13;10429918;28;20048;-69
2023/04/05 22:02:20;;;;;;;8.15;7.35;;;;;;;8.14;38.25;100474.31;10455420;28;20055;-71
2023/04/05 22:07:22;;;;;;;11.02;7.63;;;;;;;8.21;38.23;100474.75;10443878;28;20048;-70
2023/04/05 22:12:23;;;;;;;8.50;7.45;;;;;;;8.16;38.88;100471.56;10443346;28;20084;-67
2023/04/05 22:17:25;;;;;;;9.35;7.97;;;;;;;8.13;39.34;100465.50;10432828;28;20057;-64
2023/04/05 22:22:26;;;;;;;9.52;8.10;;;;;;;8.09;39.03;100466.66;10435604;28;20579;-69
2023/04/05 22:27:28;;;;;;;8.98;8.00;;;;;;;7.99;39.51;100473.53;10440772;28;20051;-69
2023/04/05 22:32:30;;;;;;;8.02;7.22;;;;;;;7.87;39.20;100471.69;10434797;28;20137;-70
2023/04/05 22:37:35;;;;;;;8.60;7.78;;;;;;;7.71;39.34;100462.06;10435700;28;20064;-69
2023/04/05 22:42:37;;;;;;;8.95;8.05;;;;;;;7.69;39.72;100474.59;10437120;28;20074;-68
2023/04/05 22:47:39;;;;;;;8.70;7.82;;;;;;;7.65;40.22;100478.38;10433299;28;20452;-70
2023/04/05 22:52:40;;;;;;;9.57;8.65;;;;;;;7.66;40.40;100474.78;10432452;28;20049;-67
2023/04/05 22:57:42;;;;;;;10.73;8.63;;;;;;;7.57;40.81;100475.38;10437108;28;20533;-70
2023/04/05 23:02:44;;;;;;;8.82;7.43;;;;;;;7.45;41.07;100471.72;10430401;28;20277;-67
2023/04/05 23:07:45;;;;;;;9.30;7.80;;;;;;;7.34;41.59;100464.47;10433216;28;20053;-68
2023/04/05 23:12:47;;;;;;;8.85;7.95;;;;;;;7.34;41.19;100466.25;10439059;28;20060;-71
2023/04/05 23:17:49;;;;;;;9.55;8.60;;;;;;;7.25;41.52;100465.03;10432976;28;20036;-68
2023/04/05 23:22:51;;;;;;;9.98;8.80;;;;;;;7.13;42.13;100464.03;10436628;28;20684;-67